Time,TemperatureF,DewpointF,PressureIn,WindDirection,WindDirectionDegrees,WindSpeedMPH,WindSpeedGustMPH,Humidity,HourlyPrecipIn,Conditions,Clouds,dailyrainin,SoftwareType,DateUTC
2013-04-01 00:02:00,42.0,27.0,29.95,NW,320,10.0,23.0,54,0.00,,,0.00,,2013-04-01 05:02:00,
2013-04-01 00:12:00,42.0,27.0,29.95,NW,320,10.0,23.0,54,0.00,,,0.00,,2013-04-01 05:12:00,
2013-04-01 00:22:00,42.0,27.0,29.95,NW,320,10.0,23.0,54,0.00,,,0.00,,2013-04-01 05:22:00,
2013-04-01 00:32:00,39.0,24.0,29.96,NNW,330,9.0,25.0,54,0.00,,,0.00,,2013-04-01 05:32:00,
2013-04-01 00:42:00,39.0,24.0,29.96,NNW,330,9.0,25.0,54,0.00,,,0.00,,2013-04-01 05:42:00,
2013-04-01 00:53:00,39.0,24.0,29.96,NNW,330,9.0,25.0,54,0.00,,,0.00,,2013-04-01 05:53:00,
2013-04-01 01:02:00,39.0,24.0,29.96,NNW,330,9.0,25.0,54,0.00,,,0.00,,2013-04-01 06:02:00,
2013-04-01 01:12:00,39.0,24.0,29.96,NNW,330,9.0,25.0,54,0.00,,,0.00,,2013-04-01 06:12:00,
2013-04-01 01:22:00,39.0,24.0,29.96,NNW,330,9.0,25.0,54,0.00,,,0.00,,2013-04-01 06:22:00,
2013-04-01 01:33:00,38.0,25.0,29.99,NNW,330,9.0,25.0,59,0.00,,,0.00,,2013-04-01 06:33:00,
2013-04-01 01:42:00,38.0,25.0,29.99,NNW,330,9.0,25.0,59,0.00,,,0.00,,2013-04-01 06:42:00,
2013-04-01 01:52:00,38.0,25.0,29.99,NNW,330,9.0,25.0,59,0.00,,,0.00,,2013-04-01 06:52:00,
2013-04-01 02:02:00,38.0,25.0,29.99,NNW,330,9.0,25.0,59,0.00,,,0.00,,2013-04-01 07:02:00,
2013-04-01 02:12:00,38.0,25.0,29.99,NNW,330,9.0,25.0,59,0.00,,,0.00,,2013-04-01 07:12:00,
2013-04-01 02:22:00,38.0,25.0,29.99,NNW,330,9.0,25.0,59,0.00,,,0.00,,2013-04-01 07:22:00,
2013-04-01 02:32:00,37.0,21.0,30.01,NNW,340,13.0,26.0,51,0.00,,,0.00,,2013-04-01 07:32:00,
2013-04-01 02:42:00,37.0,21.0,30.01,NNW,340,13.0,26.0,51,0.00,,,0.00,,2013-04-01 07:42:00,
2013-04-01 02:53:00,37.0,21.0,30.01,NNW,340,13.0,26.0,51,0.00,,,0.00,,2013-04-01 07:53:00,
2013-04-01 03:02:00,37.0,21.0,30.01,NNW,340,13.0,26.0,51,0.00,,,0.00,,2013-04-01 08:02:00,
2013-04-01 03:12:00,37.0,21.0,30.01,NNW,340,13.0,26.0,51,0.00,,,0.00,,2013-04-01 08:12:00,
2013-04-01 03:22:00,37.0,21.0,30.01,NNW,340,13.0,26.0,51,0.00,,,0.00,,2013-04-01 08:22:00,
2013-04-01 03:32:00,35.0,22.0,30.03,NW,320,7.0,26.0,58,0.00,,,0.00,,2013-04-01 08:32:00,
2013-04-01 03:43:00,35.0,22.0,30.03,NW,320,7.0,26.0,58,0.00,,,0.00,,2013-04-01 08:43:00,
2013-04-01 03:53:00,35.0,22.0,30.03,NW,320,7.0,7.0,58,0.00,,,0.00,,2013-04-01 08:53:00,
2013-04-01 04:02:00,35.0,22.0,30.03,NW,320,7.0,7.0,58,0.00,,,0.00,,2013-04-01 09:02:00,
2013-04-01 04:12:00,35.0,22.0,30.03,NW,320,7.0,7.0,58,0.00,,,0.00,,2013-04-01 09:12:00,
2013-04-01 04:22:00,35.0,22.0,30.03,NW,320,7.0,7.0,58,0.00,,,0.00,,2013-04-01 09:22:00,
2013-04-01 04:33:00,33.0,23.0,30.05,NW,310,8.0,8.0,66,0.00,,,0.00,,2013-04-01 09:33:00,
2013-04-01 04:42:00,33.0,23.0,30.05,NW,310,8.0,8.0,66,0.00,,,0.00,,2013-04-01 09:42:00,
2013-04-01 04:53:00,33.0,23.0,30.05,NW,310,8.0,8.0,66,0.00,,,0.00,,2013-04-01 09:53:00,
2013-04-01 05:03:00,33.0,23.0,30.05,NW,310,8.0,8.0,66,0.00,,,0.00,,2013-04-01 10:03:00,
2013-04-01 05:12:00,33.0,23.0,30.05,NW,310,8.0,8.0,66,0.00,,,0.00,,2013-04-01 10:12:00,
2013-04-01 05:23:00,33.0,23.0,30.05,NW,310,8.0,8.0,66,0.00,,,0.00,,2013-04-01 10:23:00,
2013-04-01 05:33:00,31.0,22.0,30.06,NW,320,8.0,8.0,68,0.00,,,0.00,,2013-04-01 10:33:00,
2013-04-01 05:42:00,31.0,22.0,30.06,NW,320,8.0,8.0,68,0.00,,,0.00,,2013-04-01 10:42:00,
2013-04-01 05:53:00,31.0,22.0,30.06,NW,320,8.0,8.0,68,0.00,,,0.00,,2013-04-01 10:53:00,
2013-04-01 06:03:00,31.0,22.0,30.06,NW,320,8.0,8.0,68,0.00,,,0.00,,2013-04-01 11:03:00,
2013-04-01 06:12:00,31.0,22.0,30.06,NW,320,8.0,8.0,68,0.00,,,0.00,,2013-04-01 11:12:00,
2013-04-01 06:23:00,31.0,22.0,30.06,NW,320,8.0,8.0,68,0.00,,,0.00,,2013-04-01 11:23:00,
2013-04-01 06:33:00,29.0,22.0,30.09,NW,320,5.0,8.0,74,0.00,,,0.00,,2013-04-01 11:33:00,
2013-04-01 06:42:00,29.0,22.0,30.09,NW,320,5.0,8.0,74,0.00,,,0.00,,2013-04-01 11:42:00,
2013-04-01 06:53:00,29.0,22.0,30.09,NW,320,5.0,5.0,74,0.00,,,0.00,,2013-04-01 11:53:00,
2013-04-01 07:02:00,29.0,22.0,30.09,NW,320,5.0,5.0,74,0.00,,,0.00,,2013-04-01 12:02:00,
2013-04-01 07:12:00,29.0,22.0,30.09,NW,320,5.0,5.0,74,0.00,,,0.00,,2013-04-01 12:12:00,
2013-04-01 07:22:00,29.0,22.0,30.09,NW,320,5.0,5.0,74,0.00,,,0.00,,2013-04-01 12:22:00,
2013-04-01 07:32:00,28.0,22.0,30.11,NW,320,6.0,6.0,77,0.00,,,0.00,,2013-04-01 12:32:00,
2013-04-01 07:42:00,28.0,22.0,30.11,NW,320,6.0,6.0,77,0.00,,,0.00,,2013-04-01 12:42:00,
2013-04-01 07:53:00,28.0,22.0,30.11,NW,320,6.0,6.0,77,0.00,,,0.00,,2013-04-01 12:53:00,
2013-04-01 08:02:00,28.0,22.0,30.11,NW,320,6.0,6.0,77,0.00,,,0.00,,2013-04-01 13:02:00,
2013-04-01 08:12:00,28.0,22.0,30.11,NW,320,6.0,6.0,77,0.00,,,0.00,,2013-04-01 13:12:00,
2013-04-01 08:22:00,28.0,22.0,30.11,NW,320,6.0,6.0,77,0.00,,,0.00,,2013-04-01 13:22:00,
2013-04-01 08:32:00,30.0,22.0,30.14,NNW,340,7.0,7.0,71,0.00,,,0.00,,2013-04-01 13:32:00,
2013-04-01 08:42:00,30.0,22.0,30.14,NNW,340,7.0,7.0,71,0.00,,,0.00,,2013-04-01 13:42:00,
2013-04-01 08:52:00,30.0,22.0,30.14,NNW,340,7.0,7.0,71,0.00,,,0.00,,2013-04-01 13:52:00,
2013-04-01 09:03:00,30.0,22.0,30.14,NNW,340,7.0,7.0,71,0.00,,,0.00,,2013-04-01 14:03:00,
2013-04-01 09:12:00,30.0,22.0,30.14,NNW,340,7.0,7.0,71,0.00,,,0.00,,2013-04-01 14:12:00,
2013-04-01 09:22:00,30.0,22.0,30.14,NNW,340,7.0,7.0,71,0.00,,,0.00,,2013-04-01 14:22:00,
2013-04-01 09:32:00,33.0,20.0,30.16,North,350,9.0,20.0,58,0.00,,,0.00,,2013-04-01 14:32:00,
2013-04-01 09:42:00,33.0,20.0,30.16,North,350,9.0,20.0,58,0.00,,,0.00,,2013-04-01 14:42:00,
2013-04-01 09:53:00,33.0,20.0,30.16,North,350,9.0,20.0,58,0.00,,,0.00,,2013-04-01 14:53:00,
2013-04-01 10:03:00,33.0,20.0,30.16,North,350,9.0,20.0,58,0.00,,,0.00,,2013-04-01 15:03:00,
2013-04-01 10:13:00,33.0,20.0,30.16,North,350,9.0,20.0,58,0.00,,,0.00,,2013-04-01 15:13:00,
2013-04-01 10:22:00,33.0,20.0,30.16,North,350,9.0,20.0,58,0.00,,,0.00,,2013-04-01 15:22:00,
2013-04-01 10:34:00,35.0,18.0,30.18,NW,310,10.0,20.0,49,0.00,,,0.00,,2013-04-01 15:34:00,
2013-04-01 10:43:00,35.0,18.0,30.18,NW,310,10.0,20.0,49,0.00,,,0.00,,2013-04-01 15:43:00,
2013-04-01 10:54:00,35.0,18.0,30.18,NW,310,10.0,10.0,49,0.00,,,0.00,,2013-04-01 15:54:00,
2013-04-01 11:02:00,35.0,18.0,30.18,NW,310,10.0,10.0,49,0.00,,,0.00,,2013-04-01 16:02:00,
2013-04-01 11:13:00,35.0,18.0,30.18,NW,310,10.0,10.0,49,0.00,,,0.00,,2013-04-01 16:13:00,
2013-04-01 11:23:00,35.0,18.0,30.18,NW,310,10.0,10.0,49,0.00,,,0.00,,2013-04-01 16:23:00,
2013-04-01 11:33:00,37.0,16.0,30.18,NNW,330,13.0,23.0,41,0.00,,,0.00,,2013-04-01 16:33:00,
2013-04-01 11:42:00,37.0,16.0,30.18,NNW,330,13.0,23.0,41,0.00,,,0.00,,2013-04-01 16:42:00,
2013-04-01 11:53:00,37.0,16.0,30.18,NNW,330,13.0,23.0,41,0.00,,,0.00,,2013-04-01 16:53:00,
2013-04-01 12:03:00,37.0,16.0,30.18,NNW,330,13.0,23.0,41,0.00,,,0.00,,2013-04-01 17:03:00,
2013-04-01 12:12:00,37.0,16.0,30.18,NNW,330,13.0,23.0,41,0.00,,,0.00,,2013-04-01 17:12:00,
2013-04-01 12:22:00,37.0,16.0,30.18,NNW,330,13.0,23.0,41,0.00,,,0.00,,2013-04-01 17:22:00,
2013-04-01 12:32:00,37.0,16.0,30.18,NNW,330,13.0,23.0,41,0.00,,,0.00,,2013-04-01 17:32:00,
2013-04-01 12:42:00,37.0,16.0,30.18,NNW,330,13.0,23.0,41,0.00,,,0.00,,2013-04-01 17:42:00,
2013-04-01 12:53:00,39.0,15.0,30.19,NNW,340,12.0,23.0,37,0.00,,,0.00,,2013-04-01 17:53:00,
2013-04-01 13:02:00,39.0,15.0,30.19,NNW,340,12.0,23.0,37,0.00,,,0.00,,2013-04-01 18:02:00,
2013-04-01 13:12:00,39.0,15.0,30.19,NNW,340,12.0,23.0,37,0.00,,,0.00,,2013-04-01 18:12:00,
2013-04-01 13:22:00,39.0,15.0,30.19,NNW,340,12.0,23.0,37,0.00,,,0.00,,2013-04-01 18:22:00,
2013-04-01 13:32:00,41.0,15.0,30.18,North,350,13.0,23.0,34,0.00,,,0.00,,2013-04-01 18:32:00,
2013-04-01 13:42:00,41.0,15.0,30.18,North,350,13.0,23.0,34,0.00,,,0.00,,2013-04-01 18:42:00,
2013-04-01 13:53:00,41.0,15.0,30.18,North,350,13.0,23.0,34,0.00,,,0.00,,2013-04-01 18:53:00,
2013-04-01 14:03:00,41.0,15.0,30.18,North,350,13.0,23.0,34,0.00,,,0.00,,2013-04-01 19:03:00,
2013-04-01 14:12:00,41.0,15.0,30.18,North,350,13.0,23.0,34,0.00,,,0.00,,2013-04-01 19:12:00,
2013-04-01 14:23:00,41.0,15.0,30.18,North,350,13.0,23.0,34,0.00,,,0.00,,2013-04-01 19:23:00,
2013-04-01 14:32:00,41.0,13.0,30.18,NNW,330,12.0,25.0,32,0.00,,,0.00,,2013-04-01 19:32:00,
2013-04-01 14:42:00,41.0,13.0,30.18,NNW,330,12.0,25.0,32,0.00,,,0.00,,2013-04-01 19:42:00,
2013-04-01 14:53:00,41.0,13.0,30.18,NNW,330,12.0,25.0,32,0.00,,,0.00,,2013-04-01 19:53:00,
2013-04-01 15:02:00,41.0,13.0,30.18,NNW,330,12.0,25.0,32,0.00,,,0.00,,2013-04-01 20:02:00,
2013-04-01 15:12:00,41.0,13.0,30.18,NNW,330,12.0,25.0,32,0.00,,,0.00,,2013-04-01 20:12:00,
2013-04-01 15:22:00,41.0,13.0,30.18,NNW,330,12.0,25.0,32,0.00,,,0.00,,2013-04-01 20:22:00,
2013-04-01 15:32:00,42.0,14.0,30.17,WNW,300,12.0,25.0,31,0.00,,,0.00,,2013-04-01 20:32:00,
2013-04-01 15:42:00,42.0,14.0,30.17,WNW,300,12.0,25.0,31,0.00,,,0.00,,2013-04-01 20:42:00,
2013-04-01 15:52:00,42.0,14.0,30.17,WNW,300,12.0,12.0,31,0.00,,,0.00,,2013-04-01 20:52:00,
2013-04-01 16:02:00,42.0,14.0,30.17,WNW,300,12.0,12.0,31,0.00,,,0.00,,2013-04-01 21:02:00,
2013-04-01 16:12:00,42.0,14.0,30.17,WNW,300,12.0,12.0,31,0.00,,,0.00,,2013-04-01 21:12:00,
2013-04-01 16:22:00,42.0,14.0,30.17,WNW,300,12.0,12.0,31,0.00,,,0.00,,2013-04-01 21:22:00,
2013-04-01 16:32:00,43.0,14.0,30.17,NW,320,9.0,21.0,30,0.00,,,0.00,,2013-04-01 21:32:00,
2013-04-01 16:43:00,43.0,14.0,30.17,NW,320,9.0,21.0,30,0.00,,,0.00,,2013-04-01 21:43:00,
2013-04-01 16:53:00,43.0,14.0,30.17,NW,320,9.0,21.0,30,0.00,,,0.00,,2013-04-01 21:53:00,
2013-04-01 17:02:00,43.0,14.0,30.17,NW,320,9.0,21.0,30,0.00,,,0.00,,2013-04-01 22:02:00,
2013-04-01 17:12:00,43.0,14.0,30.17,NW,320,9.0,21.0,30,0.00,,,0.00,,2013-04-01 22:12:00,
2013-04-01 17:22:00,43.0,14.0,30.17,NW,320,9.0,21.0,30,0.00,,,0.00,,2013-04-01 22:22:00,
2013-04-01 17:33:00,42.0,14.0,30.17,NNW,330,14.0,24.0,31,0.00,,,0.00,,2013-04-01 22:33:00,
2013-04-01 17:43:00,42.0,14.0,30.17,NNW,330,14.0,24.0,31,0.00,,,0.00,,2013-04-01 22:43:00,
2013-04-01 17:52:00,42.0,14.0,30.17,NNW,330,14.0,24.0,31,0.00,,,0.00,,2013-04-01 22:52:00,
2013-04-01 18:02:00,42.0,14.0,30.17,NNW,330,14.0,24.0,31,0.00,,,0.00,,2013-04-01 23:02:00,
2013-04-01 18:12:00,42.0,14.0,30.17,NNW,330,14.0,24.0,31,0.00,,,0.00,,2013-04-01 23:12:00,
2013-04-01 18:23:00,42.0,14.0,30.17,NNW,330,14.0,24.0,31,0.00,,,0.00,,2013-04-01 23:23:00,
2013-04-01 18:32:00,42.0,13.0,30.18,NW,320,10.0,24.0,30,0.00,,,0.00,,2013-04-01 23:32:00,
2013-04-01 18:42:00,42.0,13.0,30.18,NW,320,10.0,24.0,30,0.00,,,0.00,,2013-04-01 23:42:00,
2013-04-01 18:53:00,42.0,13.0,30.18,NW,320,10.0,10.0,30,0.00,,,0.00,,2013-04-01 23:53:00,
2013-04-01 19:02:00,42.0,13.0,30.18,NW,320,10.0,10.0,30,0.00,,,0.00,,2013-04-02 00:02:00,
2013-04-01 19:12:00,42.0,13.0,30.18,NW,320,10.0,10.0,30,0.00,,,0.00,,2013-04-02 00:12:00,
2013-04-01 19:22:00,42.0,13.0,30.18,NW,320,10.0,10.0,30,0.00,,,0.00,,2013-04-02 00:22:00,
2013-04-01 19:33:00,39.0,12.0,30.18,NNW,330,7.0,10.0,33,0.00,,,0.00,,2013-04-02 00:33:00,
2013-04-01 19:42:00,39.0,12.0,30.18,NNW,330,7.0,10.0,33,0.00,,,0.00,,2013-04-02 00:42:00,
2013-04-01 19:53:00,39.0,12.0,30.18,NNW,330,7.0,7.0,33,0.00,,,0.00,,2013-04-02 00:53:00,
2013-04-01 20:02:00,39.0,12.0,30.18,NNW,330,7.0,7.0,33,0.00,,,0.00,,2013-04-02 01:02:00,
2013-04-01 20:12:00,39.0,12.0,30.18,NNW,330,7.0,7.0,33,0.00,,,0.00,,2013-04-02 01:12:00,
2013-04-01 20:22:00,39.0,12.0,30.18,NNW,330,7.0,7.0,33,0.00,,,0.00,,2013-04-02 01:22:00,
2013-04-01 20:32:00,36.0,14.0,30.19,NNW,330,8.0,8.0,40,0.00,,,0.00,,2013-04-02 01:32:00,
2013-04-01 20:42:00,36.0,14.0,30.19,NNW,330,8.0,8.0,40,0.00,,,0.00,,2013-04-02 01:42:00,
2013-04-01 20:53:00,36.0,14.0,30.19,NNW,330,8.0,8.0,40,0.00,,,0.00,,2013-04-02 01:53:00,
2013-04-01 21:02:00,36.0,14.0,30.19,NNW,330,8.0,8.0,40,0.00,,,0.00,,2013-04-02 02:02:00,
2013-04-01 21:12:00,36.0,14.0,30.19,NNW,330,8.0,8.0,40,0.00,,,0.00,,2013-04-02 02:12:00,
2013-04-01 21:22:00,36.0,14.0,30.19,NNW,330,8.0,8.0,40,0.00,,,0.00,,2013-04-02 02:22:00,
2013-04-01 21:32:00,34.0,15.0,30.21,NW,320,6.0,8.0,45,0.00,,,0.00,,2013-04-02 02:32:00,
2013-04-01 21:42:00,34.0,15.0,30.21,NW,320,6.0,8.0,45,0.00,,,0.00,,2013-04-02 02:42:00,
2013-04-01 21:53:00,34.0,15.0,30.21,NW,320,6.0,6.0,45,0.00,,,0.00,,2013-04-02 02:53:00,
2013-04-01 22:02:00,34.0,15.0,30.21,NW,320,6.0,6.0,45,0.00,,,0.00,,2013-04-02 03:02:00,
2013-04-01 22:12:00,34.0,15.0,30.21,NW,320,6.0,6.0,45,0.00,,,0.00,,2013-04-02 03:12:00,
2013-04-01 22:22:00,34.0,15.0,30.21,NW,320,6.0,6.0,45,0.00,,,0.00,,2013-04-02 03:22:00,
2013-04-01 22:33:00,32.0,16.0,30.22,NW,320,5.0,6.0,51,0.00,,,0.00,,2013-04-02 03:33:00,
2013-04-01 22:43:00,32.0,16.0,30.22,NW,320,5.0,6.0,51,0.00,,,0.00,,2013-04-02 03:43:00,
2013-04-01 22:53:00,32.0,16.0,30.22,NW,320,5.0,5.0,51,0.00,,,0.00,,2013-04-02 03:53:00,
2013-04-01 23:03:00,32.0,16.0,30.22,NW,320,5.0,5.0,51,0.00,,,0.00,,2013-04-02 04:03:00,
2013-04-01 23:13:00,32.0,16.0,30.22,NW,320,5.0,5.0,51,0.00,,,0.00,,2013-04-02 04:13:00,
2013-04-01 23:23:00,32.0,16.0,30.22,NW,320,5.0,5.0,51,0.00,,,0.00,,2013-04-02 04:23:00,
2013-04-01 23:32:00,30.0,17.0,30.23,NW,320,5.0,5.0,58,0.00,,,0.00,,2013-04-02 04:32:00,
2013-04-01 23:43:00,30.0,17.0,30.23,NW,320,5.0,5.0,58,0.00,,,0.00,,2013-04-02 04:43:00,
2013-04-01 23:53:00,30.0,17.0,30.23,NW,320,5.0,5.0,58,0.00,,,0.00,,2013-04-02 04:53:00,